sensor_id;sensor_type;location;lat;lon;timestamp;pressure;altitude;pressure_sealevel;temperature;humidity
61474;BME280;53694;49.784;30.150;2023-04-28T00:00:24;99568.99;;;6.43;65.68
61474;BME280;53694;49.784;30.150;2023-04-28T00:01:25;99573.66;;;6.43;65.60
61474;BME280;53694;49.784;30.150;2023-04-28T00:02:27;99571.24;;;6.41;65.61
61474;BME280;53694;49.784;30.150;2023-04-28T00:03:28;99572.07;;;6.42;65.68
61474;BME280;53694;49.784;30.150;2023-04-28T00:04:30;99574.80;;;6.42;65.61
61474;BME280;53694;49.784;30.150;2023-04-28T00:05:31;99581.70;;;6.39;65.58
61474;BME280;53694;49.784;30.150;2023-04-28T00:06:33;99575.91;;;6.41;65.58
61474;BME280;53694;49.784;30.150;2023-04-28T00:07:35;99587.61;;;6.41;65.59
61474;BME280;53694;49.784;30.150;2023-04-28T00:08:36;99586.02;;;6.40;65.67
61474;BME280;53694;49.784;30.150;2023-04-28T00:09:38;99587.61;;;6.41;65.74
61474;BME280;53694;49.784;30.150;2023-04-28T00:10:40;99583.30;;;6.40;65.65
61474;BME280;53694;49.784;30.150;2023-04-28T00:11:44;99576.70;;;6.41;65.68
61474;BME280;53694;49.784;30.150;2023-04-28T00:12:45;99579.42;;;6.41;65.87
61474;BME280;53694;49.784;30.150;2023-04-28T00:13:47;99577.84;;;6.40;65.88
61474;BME280;53694;49.784;30.150;2023-04-28T00:14:48;99577.84;;;6.40;65.87
61474;BME280;53694;49.784;30.150;2023-04-28T00:15:50;99572.38;;;6.40;65.89
61474;BME280;53694;49.784;30.150;2023-04-28T00:16:51;99581.70;;;6.39;65.96
61474;BME280;53694;49.784;30.150;2023-04-28T00:17:53;99582.05;;;6.38;65.97
61474;BME280;53694;49.784;30.150;2023-04-28T00:18:54;99591.03;;;6.38;66.06
61474;BME280;53694;49.784;30.150;2023-04-28T00:19:56;99581.26;;;6.37;66.10
61474;BME280;53694;49.784;30.150;2023-04-28T00:20:58;99592.17;;;6.37;66.08
61474;BME280;53694;49.784;30.150;2023-04-28T00:21:59;99588.61;;;6.37;66.10
61474;BME280;53694;49.784;30.150;2023-04-28T00:23:01;99591.34;;;6.37;66.42
61474;BME280;53694;49.784;30.150;2023-04-28T00:24:03;99601.46;;;6.36;66.39
61474;BME280;53694;49.784;30.150;2023-04-28T00:25:06;99594.42;;;6.35;66.47
61474;BME280;53694;49.784;30.150;2023-04-28T00:26:08;99593.97;;;6.33;66.58
61474;BME280;53694;49.784;30.150;2023-04-28T00:27:09;99595.55;;;6.34;66.48
61474;BME280;53694;49.784;30.150;2023-04-28T00:28:11;99592.34;;;6.32;66.51
61474;BME280;53694;49.784;30.150;2023-04-28T00:29:12;99596.70;;;6.33;66.40
61474;BME280;53694;49.784;30.150;2023-04-28T00:30:14;99595.87;;;6.33;66.42
61474;BME280;53694;49.784;30.150;2023-04-28T00:31:16;99602.47;;;6.32;66.41
61474;BME280;53694;49.784;30.150;2023-04-28T00:32:17;99600.53;;;6.32;66.43
61474;BME280;53694;49.784;30.150;2023-04-28T00:33:19;99600.53;;;6.32;66.50
61474;BME280;53694;49.784;30.150;2023-04-28T00:34:20;99599.73;;;6.32;66.50
61474;BME280;53694;49.784;30.150;2023-04-28T00:35:22;99600.53;;;6.32;66.52
61474;BME280;53694;49.784;30.150;2023-04-28T00:36:24;99603.26;;;6.32;66.53
61474;BME280;53694;49.784;30.150;2023-04-28T00:37:25;99605.19;;;6.32;66.59
61474;BME280;53694;49.784;30.150;2023-04-28T00:38:27;99598.94;;;6.31;66.58
61474;BME280;53694;49.784;30.150;2023-04-28T00:39:28;99605.98;;;6.32;66.54
61474;BME280;53694;49.784;30.150;2023-04-28T00:40:37;99600.53;;;6.32;66.57
61474;BME280;53694;49.784;30.150;2023-04-28T00:41:39;99602.15;;;6.33;66.53
61474;BME280;53694;49.784;30.150;2023-04-28T00:42:40;99600.53;;;6.32;66.43
61474;BME280;53694;49.784;30.150;2023-04-28T00:43:46;99599.73;;;6.32;66.42
61474;BME280;53694;49.784;30.150;2023-04-28T00:44:48;99592.69;;;6.31;66.41
61474;BME280;53694;49.784;30.150;2023-04-28T00:45:50;99605.19;;;6.32;66.45
61474;BME280;53694;49.784;30.150;2023-04-28T00:46:52;99602.80;;;6.30;66.43
61474;BME280;53694;49.784;30.150;2023-04-28T00:47:54;99602.80;;;6.30;66.51
61474;BME280;53694;49.784;30.150;2023-04-28T00:48:56;99609.84;;;6.31;66.58
61474;BME280;53694;49.784;30.150;2023-04-28T00:50:03;99610.98;;;6.30;66.54
61474;BME280;53694;49.784;30.150;2023-04-28T00:51:02;99606.67;;;6.29;66.46
61474;BME280;53694;49.784;30.150;2023-04-28T00:52:05;99602.80;;;6.30;66.54
61474;BME280;53694;49.784;30.150;2023-04-28T00:53:07;99605.84;;;6.29;66.66
61474;BME280;53694;49.784;30.150;2023-04-28T00:54:08;99601.22;;;6.29;66.57
61474;BME280;53694;49.784;30.150;2023-04-28T00:55:14;99606.67;;;6.29;66.66
61474;BME280;53694;49.784;30.150;2023-04-28T00:56:17;99610.20;;;6.30;66.62
61474;BME280;53694;49.784;30.150;2023-04-28T00:57:19;99609.40;;;6.29;66.56
61474;BME280;53694;49.784;30.150;2023-04-28T00:58:22;99605.84;;;6.29;66.50
61474;BME280;53694;49.784;30.150;2023-04-28T00:59:24;99605.05;;;6.28;66.54
61474;BME280;53694;49.784;30.150;2023-04-28T01:00:25;99608.27;;;6.30;66.52
61474;BME280;53694;49.784;30.150;2023-04-28T01:01:27;99609.40;;;6.29;66.41
61474;BME280;53694;49.784;30.150;2023-04-28T01:02:30;99606.67;;;6.29;66.34
61474;BME280;53694;49.784;30.150;2023-04-28T01:03:38;99606.19;;;6.27;66.19
61474;BME280;53694;49.784;30.150;2023-04-28T01:04:39;99599.94;;;6.26;66.25
61474;BME280;53694;49.784;30.150;2023-04-28T01:05:41;99607.33;;;6.26;66.41
61474;BME280;53694;49.784;30.150;2023-04-28T01:06:42;99604.95;;;6.24;66.47
61474;BME280;53694;49.784;30.150;2023-04-28T01:07:45;99609.58;;;6.24;66.54
61474;BME280;53694;49.784;30.150;2023-04-28T01:08:49;99602.53;;;6.23;66.53
61474;BME280;53694;49.784;30.150;2023-04-28T01:09:51;99600.15;;;6.21;66.54
61474;BME280;53694;49.784;30.150;2023-04-28T01:10:53;99593.90;;;6.21;66.58
61474;BME280;53694;49.784;30.150;2023-04-28T01:11:54;99601.60;;;6.19;66.69
61474;BME280;53694;49.784;30.150;2023-04-28T01:12:56;99604.33;;;6.19;66.66
61474;BME280;53694;49.784;30.150;2023-04-28T01:13:57;99610.13;;;6.17;66.78
61474;BME280;53694;49.784;30.150;2023-04-28T01:14:59;99601.46;;;6.15;66.88
61474;BME280;53694;49.784;30.150;2023-04-28T01:16:02;99610.78;;;6.14;66.98
61474;BME280;53694;49.784;30.150;2023-04-28T01:17:03;99608.39;;;6.13;67.09
61474;BME280;53694;49.784;30.150;2023-04-28T01:18:05;99611.44;;;6.11;67.09
61474;BME280;53694;49.784;30.150;2023-04-28T01:19:07;99606.32;;;6.10;67.17
61474;BME280;53694;49.784;30.150;2023-04-28T01:20:11;99605.53;;;6.09;67.19
61474;BME280;53694;49.784;30.150;2023-04-28T01:21:13;99605.88;;;6.08;67.22
61474;BME280;53694;49.784;30.150;2023-04-28T01:22:14;99603.45;;;6.06;67.28
61474;BME280;53694;49.784;30.150;2023-04-28T01:23:16;99608.12;;;6.06;67.33
61474;BME280;53694;49.784;30.150;2023-04-28T01:24:18;99599.48;;;6.04;67.43
61474;BME280;53694;49.784;30.150;2023-04-28T01:25:19;99604.94;;;6.04;67.50
61474;BME280;53694;49.784;30.150;2023-04-28T01:26:21;99604.94;;;6.04;67.58
61474;BME280;53694;49.784;30.150;2023-04-28T01:27:23;99598.66;;;6.03;67.54
61474;BME280;53694;49.784;30.150;2023-04-28T01:28:24;99604.94;;;6.04;67.60
61474;BME280;53694;49.784;30.150;2023-04-28T01:29:26;99608.77;;;6.03;67.56
61474;BME280;53694;49.784;30.150;2023-04-28T01:30:28;99604.94;;;6.04;67.80
61474;BME280;53694;49.784;30.150;2023-04-28T01:31:29;99609.56;;;6.03;67.69
61474;BME280;53694;49.784;30.150;2023-04-28T01:32:31;99605.25;;;6.02;67.60
61474;BME280;53694;49.784;30.150;2023-04-28T01:33:32;99608.77;;;6.03;67.59
61474;BME280;53694;49.784;30.150;2023-04-28T01:34:34;99607.66;;;6.04;67.57
61474;BME280;53694;49.784;30.150;2023-04-28T01:35:35;99603.31;;;6.03;67.60
61474;BME280;53694;49.784;30.150;2023-04-28T01:36:37;99597.07;;;6.02;67.53
61474;BME280;53694;49.784;30.150;2023-04-28T01:37:38;99608.77;;;6.03;67.46
61474;BME280;53694;49.784;30.150;2023-04-28T01:38:40;99603.31;;;6.03;67.53
61474;BME280;53694;49.784;30.150;2023-04-28T01:39:41;99602.52;;;6.02;67.53
61474;BME280;53694;49.784;30.150;2023-04-28T01:40:43;99599.00;;;6.01;67.41
61474;BME280;53694;49.784;30.150;2023-04-28T01:41:45;99597.86;;;6.03;67.34
61474;BME280;53694;49.784;30.150;2023-04-28T01:42:46;99608.77;;;6.03;67.35
61474;BME280;53694;49.784;30.150;2023-04-28T01:43:48;99610.70;;;6.02;67.33
61474;BME280;53694;49.784;30.150;2023-04-28T01:44:49;99607.97;;;6.02;67.27
61474;BME280;53694;49.784;30.150;2023-04-28T01:45:51;99603.31;;;6.03;67.36
61474;BME280;53694;49.784;30.150;2023-04-28T01:46:52;99610.39;;;6.04;67.36
61474;BME280;53694;49.784;30.150;2023-04-28T01:47:54;99613.11;;;6.04;67.32
61474;BME280;53694;49.784;30.150;2023-04-28T01:48:56;99611.98;;;6.05;67.23
61474;BME280;53694;49.784;30.150;2023-04-28T01:49:57;99619.81;;;6.06;67.26
61474;BME280;53694;49.784;30.150;2023-04-28T01:50:59;99614.36;;;6.06;67.22
61474;BME280;53694;49.784;30.150;2023-04-28T01:52:01;99608.12;;;6.06;67.22
61474;BME280;53694;49.784;30.150;2023-04-28T01:53:02;99615.95;;;6.07;67.23
61474;BME280;53694;49.784;30.150;2023-04-28T01:54:04;99605.05;;;6.07;67.20
61474;BME280;53694;49.784;30.150;2023-04-28T01:55:08;99611.33;;;6.08;67.25
61474;BME280;53694;49.784;30.150;2023-04-28T01:56:10;99606.98;;;6.07;67.24
61474;BME280;53694;49.784;30.150;2023-04-28T01:57:11;99610.84;;;6.06;67.12
61474;BME280;53694;49.784;30.150;2023-04-28T01:58:13;99612.43;;;6.07;67.09
61474;BME280;53694;49.784;30.150;2023-04-28T01:59:15;99605.39;;;6.06;66.94
61474;BME280;53694;49.784;30.150;2023-04-28T02:00:17;99606.53;;;6.05;66.95
61474;BME280;53694;49.784;30.150;2023-04-28T02:01:20;99610.84;;;6.06;67.00
61474;BME280;53694;49.784;30.150;2023-04-28T02:02:23;99606.05;;;6.03;66.97
61474;BME280;53694;49.784;30.150;2023-04-28T02:03:27;99606.53;;;6.05;66.98
61474;BME280;53694;49.784;30.150;2023-04-28T02:04:29;99604.94;;;6.04;66.98
61474;BME280;53694;49.784;30.150;2023-04-28T02:05:31;99607.97;;;6.02;67.02
61474;BME280;53694;49.784;30.150;2023-04-28T02:06:33;99614.91;;;5.99;67.00
61474;BME280;53694;49.784;30.150;2023-04-28T02:07:34;99609.45;;;5.99;67.05
61474;BME280;53694;49.784;30.150;2023-04-28T02:08:36;99617.94;;;5.98;67.02
61474;BME280;53694;49.784;30.150;2023-04-28T02:09:38;99613.17;;;5.95;66.98
61474;BME280;53694;49.784;30.150;2023-04-28T02:10:39;99616.21;;;5.93;67.11
61474;BME280;53694;49.784;30.150;2023-04-28T02:11:41;99611.09;;;5.92;67.24
61474;BME280;53694;49.784;30.150;2023-04-28T02:12:42;99604.34;;;5.89;67.15
61474;BME280;53694;49.784;30.150;2023-04-28T02:13:44;99616.38;;;5.88;66.97
61474;BME280;53694;49.784;30.150;2023-04-28T02:14:45;99619.45;;;5.87;67.03
61474;BME280;53694;49.784;30.150;2023-04-28T02:15:47;99618.96;;;5.85;67.15
61474;BME280;53694;49.784;30.150;2023-04-28T02:16:49;99618.17;;;5.84;67.33
61474;BME280;53694;49.784;30.150;2023-04-28T02:17:50;99621.69;;;5.85;67.22
61474;BME280;53694;49.784;30.150;2023-04-28T02:18:52;99619.30;;;5.83;67.21
61474;BME280;53694;49.784;30.150;2023-04-28T02:19:54;99619.30;;;5.83;67.14
61474;BME280;53694;49.784;30.150;2023-04-28T02:20:56;99619.61;;;5.82;67.07
61474;BME280;53694;49.784;30.150;2023-04-28T02:21:57;99622.67;;;5.80;67.01
61474;BME280;53694;49.784;30.150;2023-04-28T02:22:59;99618.81;;;5.81;67.05
61474;BME280;53694;49.784;30.150;2023-04-28T02:24:00;99619.95;;;5.80;66.94
61474;BME280;53694;49.784;30.150;2023-04-28T02:25:02;99621.88;;;5.80;66.97
61474;BME280;53694;49.784;30.150;2023-04-28T02:26:05;99623.81;;;5.79;66.98
61474;BME280;53694;49.784;30.150;2023-04-28T02:27:06;99630.40;;;5.78;66.94
61474;BME280;53694;49.784;30.150;2023-04-28T02:28:08;99626.39;;;5.75;66.85
61474;BME280;53694;49.784;30.150;2023-04-28T02:29:10;99624.00;;;5.74;66.87
61474;BME280;53694;49.784;30.150;2023-04-28T02:30:12;99620.80;;;5.72;66.87
61474;BME280;53694;49.784;30.150;2023-04-28T02:31:13;99628.52;;;5.70;66.86
61474;BME280;53694;49.784;30.150;2023-04-28T02:32:15;99626.89;;;5.69;66.94
61474;BME280;53694;49.784;30.150;2023-04-28T02:33:16;99622.13;;;5.66;66.89
61474;BME280;53694;49.784;30.150;2023-04-28T02:34:18;99629.81;;;5.64;66.92
61474;BME280;53694;49.784;30.150;2023-04-28T02:35:19;99629.02;;;5.63;66.91
61474;BME280;53694;49.784;30.150;2023-04-28T02:36:21;99624.22;;;5.60;66.95
61474;BME280;53694;49.784;30.150;2023-04-28T02:37:23;99628.41;;;5.58;66.92
61474;BME280;53694;49.784;30.150;2023-04-28T02:38:24;99626.00;;;5.56;66.81
61474;BME280;53694;49.784;30.150;2023-04-28T02:39:26;99625.54;;;5.54;66.65
61474;BME280;53694;49.784;30.150;2023-04-28T02:40:28;99626.98;;;5.51;66.78
61474;BME280;53694;49.784;30.150;2023-04-28T02:41:29;99626.86;;;5.48;66.77
61474;BME280;53694;49.784;30.150;2023-04-28T02:42:31;99632.62;;;5.46;66.79
61474;BME280;53694;49.784;30.150;2023-04-28T02:43:32;99631.67;;;5.42;66.81
61474;BME280;53694;49.784;30.150;2023-04-28T02:44:34;99633.14;;;5.40;66.98
61474;BME280;53694;49.784;30.150;2023-04-28T02:45:36;99631.86;;;5.37;67.02
61474;BME280;53694;49.784;30.150;2023-04-28T02:46:37;99628.67;;;5.35;67.03
61474;BME280;53694;49.784;30.150;2023-04-28T02:47:39;99634.77;;;5.32;66.89
61474;BME280;53694;49.784;30.150;2023-04-28T02:48:40;99638.13;;;5.29;66.98
61474;BME280;53694;49.784;30.150;2023-04-28T02:49:42;99631.09;;;5.28;67.10
61474;BME280;53694;49.784;30.150;2023-04-28T02:50:43;99638.31;;;5.24;67.09
61474;BME280;53694;49.784;30.150;2023-04-28T02:51:45;99640.55;;;5.22;67.17
61474;BME280;53694;49.784;30.150;2023-04-28T02:52:47;99638.50;;;5.19;67.08
61474;BME280;53694;49.784;30.150;2023-04-28T02:53:48;99647.77;;;5.18;67.24
61474;BME280;53694;49.784;30.150;2023-04-28T02:54:50;99643.45;;;5.17;67.26
61474;BME280;53694;49.784;30.150;2023-04-28T02:55:51;99645.72;;;5.15;67.18
61474;BME280;53694;49.784;30.150;2023-04-28T02:56:55;99644.77;;;5.11;67.22
61474;BME280;53694;49.784;30.150;2023-04-28T02:57:57;99652.44;;;5.09;67.23
61474;BME280;53694;49.784;30.150;2023-04-28T02:58:59;99649.25;;;5.07;67.20
61474;BME280;53694;49.784;30.150;2023-04-28T03:00:00;99646.04;;;5.05;67.25
61474;BME280;53694;49.784;30.150;2023-04-28T03:01:02;99651.48;;;5.05;67.41
61474;BME280;53694;49.784;30.150;2023-04-28T03:02:03;99652.16;;;5.01;67.45
61474;BME280;53694;49.784;30.150;2023-04-28T03:03:05;99646.71;;;5.01;67.41
61474;BME280;53694;49.784;30.150;2023-04-28T03:04:08;99655.97;;;5.00;67.45
61474;BME280;53694;49.784;30.150;2023-04-28T03:05:09;99654.38;;;4.99;67.48
61474;BME280;53694;49.784;30.150;2023-04-28T03:06:11;99658.54;;;4.97;67.53
61474;BME280;53694;49.784;30.150;2023-04-28T03:07:13;99660.47;;;4.96;67.49
61474;BME280;53694;49.784;30.150;2023-04-28T03:08:15;99664.31;;;4.95;67.60
61474;BME280;53694;49.784;30.150;2023-04-28T03:09:16;99661.12;;;4.93;67.63
61474;BME280;53694;49.784;30.150;2023-04-28T03:10:18;99664.16;;;4.92;67.64
61474;BME280;53694;49.784;30.150;2023-04-28T03:11:20;99667.21;;;4.90;67.59
61474;BME280;53694;49.784;30.150;2023-04-28T03:12:21;99665.62;;;4.89;67.60
61474;BME280;53694;49.784;30.150;2023-04-28T03:13:23;99669.44;;;4.88;67.67
61474;BME280;53694;49.784;30.150;2023-04-28T03:14:24;99678.73;;;4.87;67.71
61474;BME280;53694;49.784;30.150;2023-04-28T03:15:26;99669.31;;;4.85;67.74
61474;BME280;53694;49.784;30.150;2023-04-28T03:16:27;99675.55;;;4.85;67.86
61474;BME280;53694;49.784;30.150;2023-04-28T03:17:29;99681.30;;;4.84;67.79
61474;BME280;53694;49.784;30.150;2023-04-28T03:18:31;99681.63;;;4.82;67.80
61474;BME280;53694;49.784;30.150;2023-04-28T03:19:32;99686.27;;;4.82;67.69
61474;BME280;53694;49.784;30.150;2023-04-28T03:20:34;99695.56;;;4.81;67.80
61474;BME280;53694;49.784;30.150;2023-04-28T03:21:35;99687.70;;;4.79;67.67
61474;BME280;53694;49.784;30.150;2023-04-28T03:22:37;99690.75;;;4.78;67.73
61474;BME280;53694;49.784;30.150;2023-04-28T03:23:39;99685.64;;;4.76;67.69
61474;BME280;53694;49.784;30.150;2023-04-28T03:24:40;99691.38;;;4.74;67.57
61474;BME280;53694;49.784;30.150;2023-04-28T03:25:42;99691.22;;;4.71;67.84
61474;BME280;53694;49.784;30.150;2023-04-28T03:26:43;99689.16;;;4.68;67.90
61474;BME280;53694;49.784;30.150;2023-04-28T03:27:45;99688.67;;;4.66;67.73
61474;BME280;53694;49.784;30.150;2023-04-28T03:28:47;99692.52;;;4.65;67.95
61474;BME280;53694;49.784;30.150;2023-04-28T03:29:48;99690.13;;;4.63;67.89
61474;BME280;53694;49.784;30.150;2023-04-28T03:30:50;99684.98;;;4.62;68.02
61474;BME280;53694;49.784;30.150;2023-04-28T03:31:51;99691.55;;;4.61;68.21
61474;BME280;53694;49.784;30.150;2023-04-28T03:32:52;99691.55;;;4.61;68.15
61474;BME280;53694;49.784;30.150;2023-04-28T03:33:54;99697.00;;;4.61;68.19
61474;BME280;53694;49.784;30.150;2023-04-28T03:34:55;99697.00;;;4.61;68.17
61474;BME280;53694;49.784;30.150;2023-04-28T03:35:57;99693.78;;;4.59;68.10
61474;BME280;53694;49.784;30.150;2023-04-28T03:36:59;99700.05;;;4.59;67.96
61474;BME280;53694;49.784;30.150;2023-04-28T03:38:00;99696.83;;;4.57;68.02
61474;BME280;53694;49.784;30.150;2023-04-28T03:39:02;99693.31;;;4.57;68.05
61474;BME280;53694;49.784;30.150;2023-04-28T03:40:04;99701.47;;;4.57;67.83
61474;BME280;53694;49.784;30.150;2023-04-28T03:41:06;99694.73;;;4.54;67.91
61474;BME280;53694;49.784;30.150;2023-04-28T03:42:08;99702.10;;;4.54;67.73
61474;BME280;53694;49.784;30.150;2023-04-28T03:43:09;99701.64;;;4.51;67.85
61474;BME280;53694;49.784;30.150;2023-04-28T03:44:11;99705.16;;;4.52;67.76
61474;BME280;53694;49.784;30.150;2023-04-28T03:45:13;99702.77;;;4.50;67.86
61474;BME280;53694;49.784;30.150;2023-04-28T03:46:14;99702.77;;;4.50;67.89
61474;BME280;53694;49.784;30.150;2023-04-28T03:47:16;99705.78;;;4.49;67.93
61474;BME280;53694;49.784;30.150;2023-04-28T03:48:17;99697.32;;;4.50;67.81
61474;BME280;53694;49.784;30.150;2023-04-28T03:49:19;99704.66;;;4.50;67.79
61474;BME280;53694;49.784;30.150;2023-04-28T03:50:20;99703.86;;;4.49;67.87
61474;BME280;53694;49.784;30.150;2023-04-28T03:51:22;99706.58;;;4.49;67.87
61474;BME280;53694;49.784;30.150;2023-04-28T03:52:25;99705.78;;;4.49;67.83
61474;BME280;53694;49.784;30.150;2023-04-28T03:53:26;99707.70;;;4.48;67.73
61474;BME280;53694;49.784;30.150;2023-04-28T03:54:28;99710.42;;;4.48;67.82
61474;BME280;53694;49.784;30.150;2023-04-28T03:55:29;99710.42;;;4.48;67.82
61474;BME280;53694;49.784;30.150;2023-04-28T03:56:31;99712.02;;;4.49;67.75
61474;BME280;53694;49.784;30.150;2023-04-28T03:57:33;99712.02;;;4.49;67.57
61474;BME280;53694;49.784;30.150;2023-04-28T03:58:34;99710.92;;;4.50;67.58
61474;BME280;53694;49.784;30.150;2023-04-28T03:59:36;99717.95;;;4.51;67.57
61474;BME280;53694;49.784;30.150;2023-04-28T04:00:38;99715.23;;;4.51;67.69
61474;BME280;53694;49.784;30.150;2023-04-28T04:01:39;99716.83;;;4.53;67.52
61474;BME280;53694;49.784;30.150;2023-04-28T04:02:41;99721.94;;;4.54;67.14
61474;BME280;53694;49.784;30.150;2023-04-28T04:03:42;99718.42;;;4.54;67.24
61474;BME280;53694;49.784;30.150;2023-04-28T04:04:44;99715.40;;;4.55;67.21
61474;BME280;53694;49.784;30.150;2023-04-28T04:05:46;99719.72;;;4.56;67.17
61474;BME280;53694;49.784;30.150;2023-04-28T04:06:48;99721.64;;;4.56;66.90
61474;BME280;53694;49.784;30.150;2023-04-28T04:07:49;99719.22;;;4.54;66.78
61474;BME280;53694;49.784;30.150;2023-04-28T04:08:51;99714.61;;;4.55;66.78
61474;BME280;53694;49.784;30.150;2023-04-28T04:09:52;99712.98;;;4.54;66.90
61474;BME280;53694;49.784;30.150;2023-04-28T04:10:54;99724.66;;;4.54;67.24
61474;BME280;53694;49.784;30.150;2023-04-28T04:11:56;99727.70;;;4.53;66.99
61474;BME280;53694;49.784;30.150;2023-04-28T04:12:57;99726.91;;;4.52;67.01
61474;BME280;53694;49.784;30.150;2023-04-28T04:13:59;99713.64;;;4.50;66.98
61474;BME280;53694;49.784;30.150;2023-04-28T04:15:00;99720.17;;;4.49;66.97
61474;BME280;53694;49.784;30.150;2023-04-28T04:16:02;99724.52;;;4.50;66.98
61474;BME280;53694;49.784;30.150;2023-04-28T04:17:04;99722.89;;;4.49;67.09
61474;BME280;53694;49.784;30.150;2023-04-28T04:18:05;99726.11;;;4.51;66.63
61474;BME280;53694;49.784;30.150;2023-04-28T04:19:07;99726.91;;;4.52;66.68
61474;BME280;53694;49.784;30.150;2023-04-28T04:20:09;99720.67;;;4.51;66.73
61474;BME280;53694;49.784;30.150;2023-04-28T04:21:11;99725.78;;;4.53;66.66
61474;BME280;53694;49.784;30.150;2023-04-28T04:22:12;99730.59;;;4.56;66.71
61474;BME280;53694;49.784;30.150;2023-04-28T04:23:14;99725.95;;;4.57;66.52
61474;BME280;53694;49.784;30.150;2023-04-28T04:24:16;99727.55;;;4.58;66.87
61474;BME280;53694;49.784;30.150;2023-04-28T04:25:17;99727.55;;;4.58;66.64
61474;BME280;53694;49.784;30.150;2023-04-28T04:26:19;99728.05;;;4.60;66.42
61474;BME280;53694;49.784;30.150;2023-04-28T04:27:21;99726.42;;;4.59;66.31
61474;BME280;53694;49.784;30.150;2023-04-28T04:28:23;99729.64;;;4.61;66.22
61474;BME280;53694;49.784;30.150;2023-04-28T04:29:24;99732.03;;;4.62;66.29
61474;BME280;53694;49.784;30.150;2023-04-28T04:30:26;99730.10;;;4.63;66.14
61474;BME280;53694;49.784;30.150;2023-04-28T04:31:28;99730.10;;;4.63;66.18
61474;BME280;53694;49.784;30.150;2023-04-28T04:32:29;99741.48;;;4.65;66.04
61474;BME280;53694;49.784;30.150;2023-04-28T04:33:31;99733.32;;;4.65;66.01
61474;BME280;53694;49.784;30.150;2023-04-28T04:34:32;99737.63;;;4.66;66.03
61474;BME280;53694;49.784;30.150;2023-04-28T04:35:34;99738.43;;;4.66;66.17
61474;BME280;53694;49.784;30.150;2023-04-28T04:36:35;99739.73;;;4.69;66.24
61474;BME280;53694;49.784;30.150;2023-04-28T04:37:37;99739.73;;;4.69;66.20
61474;BME280;53694;49.784;30.150;2023-04-28T04:38:39;99737.80;;;4.69;66.08
61474;BME280;53694;49.784;30.150;2023-04-28T04:39:40;99737.47;;;4.71;65.99
61474;BME280;53694;49.784;30.150;2023-04-28T04:40:42;99737.47;;;4.71;65.93
61474;BME280;53694;49.784;30.150;2023-04-28T04:41:43;99734.75;;;4.71;66.04
61474;BME280;53694;49.784;30.150;2023-04-28T04:42:45;99735.25;;;4.73;66.05
61474;BME280;53694;49.784;30.150;2023-04-28T04:43:46;99743.08;;;4.74;65.95
61474;BME280;53694;49.784;30.150;2023-04-28T04:44:48;99743.88;;;4.75;65.97
61474;BME280;53694;49.784;30.150;2023-04-28T04:45:50;99742.78;;;4.76;65.79
61474;BME280;53694;49.784;30.150;2023-04-28T04:46:51;99729.17;;;4.76;65.61
61474;BME280;53694;49.784;30.150;2023-04-28T04:47:53;99748.22;;;4.76;65.69
61474;BME280;53694;49.784;30.150;2023-04-28T04:48:55;99743.25;;;4.78;65.70
61474;BME280;53694;49.784;30.150;2023-04-28T04:49:56;99747.09;;;4.77;65.75
61474;BME280;53694;49.784;30.150;2023-04-28T04:50:58;99732.36;;;4.78;65.72
61474;BME280;53694;49.784;30.150;2023-04-28T04:51:59;99748.69;;;4.78;65.41
61474;BME280;53694;49.784;30.150;2023-04-28T04:53:01;99731.23;;;4.79;65.40
61474;BME280;53694;49.784;30.150;2023-04-28T04:54:02;99738.30;;;4.80;65.36
61474;BME280;53694;49.784;30.150;2023-04-28T04:55:05;99738.30;;;4.80;65.51
61474;BME280;53694;49.784;30.150;2023-04-28T04:56:07;99745.33;;;4.81;65.50
61474;BME280;53694;49.784;30.150;2023-04-28T04:57:09;99737.64;;;4.83;65.44
61474;BME280;53694;49.784;30.150;2023-04-28T04:58:11;99731.06;;;4.84;65.36
61474;BME280;53694;49.784;30.150;2023-04-28T04:59:13;99736.21;;;4.86;65.19
61474;BME280;53694;49.784;30.150;2023-04-28T05:00:15;99738.59;;;4.87;64.90
61474;BME280;53694;49.784;30.150;2023-04-28T05:01:17;99737.00;;;4.86;65.00
61474;BME280;53694;49.784;30.150;2023-04-28T05:02:18;99729.31;;;4.88;64.80
61474;BME280;53694;49.784;30.150;2023-04-28T05:03:20;99737.47;;;4.88;64.78
61474;BME280;53694;49.784;30.150;2023-04-28T05:04:22;99737.97;;;4.90;64.63
61474;BME280;53694;49.784;30.150;2023-04-28T05:05:24;99746.59;;;4.92;64.57
61474;BME280;53694;49.784;30.150;2023-04-28T05:06:25;99745.50;;;4.93;64.90
61474;BME280;53694;49.784;30.150;2023-04-28T05:07:27;99738.92;;;4.94;64.74
61474;BME280;53694;49.784;30.150;2023-04-28T05:08:28;99745.96;;;4.95;64.64
61474;BME280;53694;49.784;30.150;2023-04-28T05:09:30;99744.53;;;4.98;64.63
61474;BME280;53694;49.784;30.150;2023-04-28T05:10:32;99742.28;;;5.00;64.64
61474;BME280;53694;49.784;30.150;2023-04-28T05:11:33;99745.49;;;5.02;64.38
61474;BME280;53694;49.784;30.150;2023-04-28T05:12:34;99749.47;;;5.05;64.37
61474;BME280;53694;49.784;30.150;2023-04-28T05:13:36;99742.11;;;5.05;64.16
61474;BME280;53694;49.784;30.150;2023-04-28T05:14:38;99747.71;;;5.09;64.22
61474;BME280;53694;49.784;30.150;2023-04-28T05:15:39;99746.58;;;5.10;64.02
61474;BME280;53694;49.784;30.150;2023-04-28T05:16:41;99744.36;;;5.12;64.03
61474;BME280;53694;49.784;30.150;2023-04-28T05:17:43;99754.91;;;5.13;63.51
61474;BME280;53694;49.784;30.150;2023-04-28T05:18:44;99749.96;;;5.15;63.69
61474;BME280;53694;49.784;30.150;2023-04-28T05:19:46;99752.35;;;5.17;63.75
61474;BME280;53694;49.784;30.150;2023-04-28T05:20:48;99760.22;;;5.18;63.89
61474;BME280;53694;49.784;30.150;2023-04-28T05:21:49;99753.31;;;5.21;63.96
61474;BME280;53694;49.784;30.150;2023-04-28T05:22:51;99757.32;;;5.23;64.00
61474;BME280;53694;49.784;30.150;2023-04-28T05:23:52;99741.45;;;5.25;64.17
61474;BME280;53694;49.784;30.150;2023-04-28T05:24:54;99751.37;;;5.30;64.26
61474;BME280;53694;49.784;30.150;2023-04-28T05:25:55;99751.06;;;5.32;63.81
61474;BME280;53694;49.784;30.150;2023-04-28T05:26:58;99748.50;;;5.35;63.98